sensor_id;sensor_type;location;lat;lon;timestamp;P1;durP1;ratioP1;P2;durP2;ratioP2
27558;SDS011;15002;52.028;5.670;2023-04-25T00:01:10;12.00;;;3.15;;
27558;SDS011;15002;52.028;5.670;2023-04-25T00:03:38;12.13;;;3.15;;
27558;SDS011;15002;52.028;5.670;2023-04-25T00:06:04;11.05;;;3.35;;
27558;SDS011;15002;52.028;5.670;2023-04-25T00:08:31;10.40;;;3.20;;
27558;SDS011;15002;52.028;5.670;2023-04-25T00:10:57;14.27;;;3.55;;
27558;SDS011;15002;52.028;5.670;2023-04-25T00:13:23;13.02;;;4.18;;
27558;SDS011;15002;52.028;5.670;2023-04-25T00:15:50;16.02;;;3.67;;
27558;SDS011;15002;52.028;5.670;2023-04-25T00:18:18;13.50;;;3.55;;
27558;SDS011;15002;52.028;5.670;2023-04-25T00:20:46;17.98;;;3.60;;
27558;SDS011;15002;52.028;5.670;2023-04-25T00:23:13;14.23;;;3.58;;
27558;SDS011;15002;52.028;5.670;2023-04-25T00:25:45;13.25;;;3.42;;
27558;SDS011;15002;52.028;5.670;2023-04-25T00:28:12;11.95;;;3.60;;
27558;SDS011;15002;52.028;5.670;2023-04-25T00:30:39;16.20;;;3.60;;
27558;SDS011;15002;52.028;5.670;2023-04-25T00:33:05;10.50;;;3.53;;
27558;SDS011;15002;52.028;5.670;2023-04-25T00:35:31;10.93;;;3.47;;
27558;SDS011;15002;52.028;5.670;2023-04-25T00:37:57;15.70;;;4.00;;
27558;SDS011;15002;52.028;5.670;2023-04-25T00:40:22;13.35;;;3.88;;
27558;SDS011;15002;52.028;5.670;2023-04-25T00:42:49;9.55;;;3.53;;
27558;SDS011;15002;52.028;5.670;2023-04-25T00:45:16;14.07;;;4.10;;
27558;SDS011;15002;52.028;5.670;2023-04-25T00:47:43;10.43;;;3.65;;
27558;SDS011;15002;52.028;5.670;2023-04-25T00:50:09;17.15;;;3.80;;
27558;SDS011;15002;52.028;5.670;2023-04-25T00:52:35;9.80;;;3.40;;
27558;SDS011;15002;52.028;5.670;2023-04-25T00:55:02;12.85;;;3.33;;
27558;SDS011;15002;52.028;5.670;2023-04-25T00:57:28;15.38;;;4.13;;
27558;SDS011;15002;52.028;5.670;2023-04-25T00:59:54;11.35;;;3.67;;
27558;SDS011;15002;52.028;5.670;2023-04-25T01:02:20;14.93;;;4.43;;
27558;SDS011;15002;52.028;5.670;2023-04-25T01:04:46;12.35;;;3.63;;
27558;SDS011;15002;52.028;5.670;2023-04-25T01:07:13;13.02;;;4.43;;
27558;SDS011;15002;52.028;5.670;2023-04-25T01:09:39;13.23;;;3.60;;
27558;SDS011;15002;52.028;5.670;2023-04-25T01:12:05;10.85;;;3.97;;
27558;SDS011;15002;52.028;5.670;2023-04-25T01:14:31;18.67;;;4.35;;
27558;SDS011;15002;52.028;5.670;2023-04-25T01:16:57;17.38;;;4.20;;
27558;SDS011;15002;52.028;5.670;2023-04-25T01:19:23;14.43;;;4.55;;
27558;SDS011;15002;52.028;5.670;2023-04-25T01:21:49;17.42;;;4.05;;
27558;SDS011;15002;52.028;5.670;2023-04-25T01:24:15;18.13;;;4.30;;
27558;SDS011;15002;52.028;5.670;2023-04-25T01:26:42;14.43;;;4.38;;
27558;SDS011;15002;52.028;5.670;2023-04-25T01:29:15;17.10;;;4.85;;
27558;SDS011;15002;52.028;5.670;2023-04-25T01:31:42;16.05;;;4.43;;
27558;SDS011;15002;52.028;5.670;2023-04-25T01:34:09;14.80;;;3.75;;
27558;SDS011;15002;52.028;5.670;2023-04-25T01:36:35;7.18;;;3.47;;
27558;SDS011;15002;52.028;5.670;2023-04-25T01:39:01;13.98;;;4.10;;
27558;SDS011;15002;52.028;5.670;2023-04-25T01:41:27;13.15;;;3.80;;
27558;SDS011;15002;52.028;5.670;2023-04-25T01:43:52;20.10;;;4.07;;
27558;SDS011;15002;52.028;5.670;2023-04-25T01:46:18;15.55;;;3.78;;
27558;SDS011;15002;52.028;5.670;2023-04-25T01:48:44;11.07;;;3.90;;
27558;SDS011;15002;52.028;5.670;2023-04-25T01:51:09;13.77;;;3.92;;
27558;SDS011;15002;52.028;5.670;2023-04-25T01:53:36;17.27;;;4.40;;
27558;SDS011;15002;52.028;5.670;2023-04-25T01:56:03;9.02;;;3.50;;
27558;SDS011;15002;52.028;5.670;2023-04-25T01:58:29;13.10;;;3.40;;
27558;SDS011;15002;52.028;5.670;2023-04-25T02:00:54;17.00;;;3.70;;
27558;SDS011;15002;52.028;5.670;2023-04-25T02:03:20;16.08;;;4.45;;
27558;SDS011;15002;52.028;5.670;2023-04-25T02:05:46;17.23;;;4.00;;
27558;SDS011;15002;52.028;5.670;2023-04-25T02:08:11;15.27;;;4.47;;
27558;SDS011;15002;52.028;5.670;2023-04-25T02:10:37;15.35;;;4.40;;
27558;SDS011;15002;52.028;5.670;2023-04-25T02:13:03;14.85;;;4.97;;
27558;SDS011;15002;52.028;5.670;2023-04-25T02:15:30;12.85;;;4.55;;
27558;SDS011;15002;52.028;5.670;2023-04-25T02:17:55;16.40;;;4.50;;
27558;SDS011;15002;52.028;5.670;2023-04-25T02:20:23;16.88;;;4.07;;
27558;SDS011;15002;52.028;5.670;2023-04-25T02:22:49;13.00;;;3.90;;
27558;SDS011;15002;52.028;5.670;2023-04-25T02:25:16;10.00;;;3.53;;
27558;SDS011;15002;52.028;5.670;2023-04-25T02:27:42;19.27;;;3.97;;
27558;SDS011;15002;52.028;5.670;2023-04-25T02:30:08;11.15;;;4.13;;
27558;SDS011;15002;52.028;5.670;2023-04-25T02:32:34;18.15;;;3.88;;
27558;SDS011;15002;52.028;5.670;2023-04-25T02:35:00;10.98;;;3.72;;
27558;SDS011;15002;52.028;5.670;2023-04-25T02:37:32;20.17;;;4.50;;
27558;SDS011;15002;52.028;5.670;2023-04-25T02:39:59;8.88;;;3.53;;
27558;SDS011;15002;52.028;5.670;2023-04-25T02:42:26;13.38;;;5.00;;
27558;SDS011;15002;52.028;5.670;2023-04-25T02:44:52;13.98;;;3.92;;
27558;SDS011;15002;52.028;5.670;2023-04-25T02:47:17;15.02;;;4.32;;
27558;SDS011;15002;52.028;5.670;2023-04-25T02:49:43;11.77;;;3.30;;
27558;SDS011;15002;52.028;5.670;2023-04-25T02:52:10;13.48;;;4.15;;
27558;SDS011;15002;52.028;5.670;2023-04-25T02:54:36;14.52;;;4.05;;
27558;SDS011;15002;52.028;5.670;2023-04-25T02:57:01;17.20;;;4.75;;
27558;SDS011;15002;52.028;5.670;2023-04-25T02:59:27;15.85;;;4.22;;
27558;SDS011;15002;52.028;5.670;2023-04-25T03:01:53;14.43;;;3.85;;
27558;SDS011;15002;52.028;5.670;2023-04-25T03:04:19;11.32;;;3.35;;
27558;SDS011;15002;52.028;5.670;2023-04-25T03:06:45;17.08;;;4.28;;
27558;SDS011;15002;52.028;5.670;2023-04-25T03:09:11;8.27;;;3.63;;
27558;SDS011;15002;52.028;5.670;2023-04-25T03:11:38;15.65;;;3.75;;
27558;SDS011;15002;52.028;5.670;2023-04-25T03:14:04;16.17;;;3.75;;
27558;SDS011;15002;52.028;5.670;2023-04-25T03:16:29;10.27;;;4.05;;
27558;SDS011;15002;52.028;5.670;2023-04-25T03:18:56;10.57;;;3.78;;
27558;SDS011;15002;52.028;5.670;2023-04-25T03:21:21;9.00;;;3.55;;
27558;SDS011;15002;52.028;5.670;2023-04-25T03:23:47;20.15;;;4.00;;
27558;SDS011;15002;52.028;5.670;2023-04-25T03:26:13;15.80;;;4.13;;
27558;SDS011;15002;52.028;5.670;2023-04-25T03:28:39;16.52;;;4.03;;
27558;SDS011;15002;52.028;5.670;2023-04-25T03:31:05;14.77;;;3.92;;
27558;SDS011;15002;52.028;5.670;2023-04-25T03:33:31;13.48;;;3.75;;
27558;SDS011;15002;52.028;5.670;2023-04-25T03:35:56;17.40;;;3.38;;
27558;SDS011;15002;52.028;5.670;2023-04-25T03:38:22;14.02;;;3.35;;
27558;SDS011;15002;52.028;5.670;2023-04-25T03:40:48;10.25;;;3.42;;
27558;SDS011;15002;52.028;5.670;2023-04-25T03:43:15;16.00;;;3.40;;
27558;SDS011;15002;52.028;5.670;2023-04-25T03:45:41;12.90;;;3.28;;
27558;SDS011;15002;52.028;5.670;2023-04-25T03:48:06;8.52;;;2.67;;
27558;SDS011;15002;52.028;5.670;2023-04-25T03:50:32;15.00;;;3.42;;
27558;SDS011;15002;52.028;5.670;2023-04-25T03:52:58;11.70;;;3.33;;
27558;SDS011;15002;52.028;5.670;2023-04-25T03:55:24;16.65;;;3.63;;
27558;SDS011;15002;52.028;5.670;2023-04-25T03:57:49;12.73;;;4.10;;
27558;SDS011;15002;52.028;5.670;2023-04-25T04:00:15;11.65;;;3.50;;
27558;SDS011;15002;52.028;5.670;2023-04-25T04:02:40;14.18;;;4.10;;
27558;SDS011;15002;52.028;5.670;2023-04-25T04:05:06;12.57;;;3.30;;
27558;SDS011;15002;52.028;5.670;2023-04-25T04:07:32;14.82;;;4.03;;
27558;SDS011;15002;52.028;5.670;2023-04-25T04:09:58;14.48;;;4.22;;
27558;SDS011;15002;52.028;5.670;2023-04-25T04:12:24;14.70;;;3.72;;
27558;SDS011;15002;52.028;5.670;2023-04-25T04:14:49;11.07;;;3.85;;
27558;SDS011;15002;52.028;5.670;2023-04-25T04:17:15;19.02;;;3.60;;
27558;SDS011;15002;52.028;5.670;2023-04-25T04:19:41;13.85;;;4.20;;
27558;SDS011;15002;52.028;5.670;2023-04-25T04:22:06;17.00;;;4.07;;
27558;SDS011;15002;52.028;5.670;2023-04-25T04:24:32;18.80;;;3.97;;
27558;SDS011;15002;52.028;5.670;2023-04-25T04:26:58;9.57;;;3.72;;
27558;SDS011;15002;52.028;5.670;2023-04-25T04:29:24;10.55;;;3.40;;
27558;SDS011;15002;52.028;5.670;2023-04-25T04:31:50;17.83;;;4.18;;
27558;SDS011;15002;52.028;5.670;2023-04-25T04:34:17;12.88;;;3.70;;
27558;SDS011;15002;52.028;5.670;2023-04-25T04:36:43;10.82;;;3.97;;
27558;SDS011;15002;52.028;5.670;2023-04-25T04:39:13;14.18;;;3.97;;
27558;SDS011;15002;52.028;5.670;2023-04-25T04:41:38;10.13;;;3.63;;
27558;SDS011;15002;52.028;5.670;2023-04-25T04:44:04;14.25;;;3.30;;
27558;SDS011;15002;52.028;5.670;2023-04-25T04:46:31;13.57;;;3.53;;
27558;SDS011;15002;52.028;5.670;2023-04-25T04:49:04;8.05;;;3.63;;
27558;SDS011;15002;52.028;5.670;2023-04-25T04:51:30;14.55;;;3.67;;
27558;SDS011;15002;52.028;5.670;2023-04-25T04:53:56;11.48;;;3.22;;
27558;SDS011;15002;52.028;5.670;2023-04-25T04:56:23;11.27;;;4.03;;
27558;SDS011;15002;52.028;5.670;2023-04-25T04:58:50;12.40;;;3.38;;
27558;SDS011;15002;52.028;5.670;2023-04-25T05:01:17;14.85;;;4.05;;
27558;SDS011;15002;52.028;5.670;2023-04-25T05:03:43;16.35;;;3.63;;
27558;SDS011;15002;52.028;5.670;2023-04-25T05:06:08;8.30;;;3.33;;
27558;SDS011;15002;52.028;5.670;2023-04-25T05:08:34;10.68;;;3.20;;
27558;SDS011;15002;52.028;5.670;2023-04-25T05:11:01;10.05;;;3.03;;
27558;SDS011;15002;52.028;5.670;2023-04-25T05:13:26;10.98;;;3.25;;
27558;SDS011;15002;52.028;5.670;2023-04-25T05:15:52;15.30;;;3.45;;
27558;SDS011;15002;52.028;5.670;2023-04-25T05:18:18;10.80;;;2.92;;
27558;SDS011;15002;52.028;5.670;2023-04-25T05:20:43;10.75;;;2.80;;
27558;SDS011;15002;52.028;5.670;2023-04-25T05:23:09;15.75;;;3.00;;
27558;SDS011;15002;52.028;5.670;2023-04-25T05:25:35;13.10;;;3.20;;
27558;SDS011;15002;52.028;5.670;2023-04-25T05:28:00;14.30;;;3.17;;
27558;SDS011;15002;52.028;5.670;2023-04-25T05:30:26;10.20;;;3.30;;
27558;SDS011;15002;52.028;5.670;2023-04-25T05:32:51;6.25;;;2.53;;
27558;SDS011;15002;52.028;5.670;2023-04-25T05:35:17;13.63;;;3.03;;
27558;SDS011;15002;52.028;5.670;2023-04-25T05:37:43;6.38;;;2.28;;
27558;SDS011;15002;52.028;5.670;2023-04-25T05:40:08;12.43;;;2.85;;
27558;SDS011;15002;52.028;5.670;2023-04-25T05:42:35;13.35;;;2.97;;
27558;SDS011;15002;52.028;5.670;2023-04-25T05:45:00;10.27;;;2.67;;
27558;SDS011;15002;52.028;5.670;2023-04-25T05:47:27;9.75;;;2.13;;
27558;SDS011;15002;52.028;5.670;2023-04-25T05:49:53;12.00;;;3.08;;
27558;SDS011;15002;52.028;5.670;2023-04-25T05:52:19;12.23;;;2.60;;
27558;SDS011;15002;52.028;5.670;2023-04-25T05:54:44;13.23;;;2.60;;
27558;SDS011;15002;52.028;5.670;2023-04-25T05:57:20;8.50;;;2.13;;
27558;SDS011;15002;52.028;5.670;2023-04-25T05:59:48;7.90;;;2.33;;
27558;SDS011;15002;52.028;5.670;2023-04-25T06:02:14;8.80;;;1.88;;
27558;SDS011;15002;52.028;5.670;2023-04-25T06:04:40;6.07;;;2.17;;
27558;SDS011;15002;52.028;5.670;2023-04-25T06:07:05;7.68;;;1.98;;
27558;SDS011;15002;52.028;5.670;2023-04-25T06:09:31;9.23;;;2.97;;
27558;SDS011;15002;52.028;5.670;2023-04-25T06:11:57;7.38;;;1.88;;
27558;SDS011;15002;52.028;5.670;2023-04-25T06:14:22;9.63;;;2.30;;
27558;SDS011;15002;52.028;5.670;2023-04-25T06:16:48;9.60;;;2.25;;
27558;SDS011;15002;52.028;5.670;2023-04-25T06:19:13;9.80;;;2.45;;
27558;SDS011;15002;52.028;5.670;2023-04-25T06:21:39;14.15;;;3.22;;
27558;SDS011;15002;52.028;5.670;2023-04-25T06:24:06;7.88;;;3.08;;
27558;SDS011;15002;52.028;5.670;2023-04-25T06:26:32;9.88;;;2.40;;
27558;SDS011;15002;52.028;5.670;2023-04-25T06:28:58;12.00;;;2.13;;
27558;SDS011;15002;52.028;5.670;2023-04-25T06:31:23;10.65;;;2.38;;
27558;SDS011;15002;52.028;5.670;2023-04-25T06:33:49;11.38;;;2.17;;
27558;SDS011;15002;52.028;5.670;2023-04-25T06:36:14;4.32;;;1.98;;
27558;SDS011;15002;52.028;5.670;2023-04-25T06:38:40;11.48;;;2.40;;
27558;SDS011;15002;52.028;5.670;2023-04-25T06:41:06;8.45;;;2.20;;
27558;SDS011;15002;52.028;5.670;2023-04-25T06:43:32;10.20;;;2.20;;
27558;SDS011;15002;52.028;5.670;2023-04-25T06:45:59;8.18;;;2.25;;
27558;SDS011;15002;52.028;5.670;2023-04-25T06:48:26;10.23;;;2.00;;
27558;SDS011;15002;52.028;5.670;2023-04-25T06:50:52;7.25;;;2.05;;
27558;SDS011;15002;52.028;5.670;2023-04-25T06:53:17;7.55;;;2.17;;
27558;SDS011;15002;52.028;5.670;2023-04-25T06:55:43;10.68;;;2.42;;
27558;SDS011;15002;52.028;5.670;2023-04-25T06:58:09;11.27;;;2.30;;
27558;SDS011;15002;52.028;5.670;2023-04-25T07:00:35;6.88;;;1.65;;
27558;SDS011;15002;52.028;5.670;2023-04-25T07:03:01;11.98;;;2.47;;
27558;SDS011;15002;52.028;5.670;2023-04-25T07:05:27;9.40;;;1.95;;
27558;SDS011;15002;52.028;5.670;2023-04-25T07:07:52;6.18;;;2.00;;
27558;SDS011;15002;52.028;5.670;2023-04-25T07:10:18;6.60;;;2.22;;
27558;SDS011;15002;52.028;5.670;2023-04-25T07:12:44;9.25;;;2.67;;
27558;SDS011;15002;52.028;5.670;2023-04-25T07:15:09;9.38;;;2.10;;
27558;SDS011;15002;52.028;5.670;2023-04-25T07:17:36;8.27;;;1.40;;
27558;SDS011;15002;52.028;5.670;2023-04-25T07:20:02;8.43;;;1.33;;
27558;SDS011;15002;52.028;5.670;2023-04-25T07:22:29;6.30;;;1.55;;
27558;SDS011;15002;52.028;5.670;2023-04-25T07:24:55;9.13;;;1.85;;
27558;SDS011;15002;52.028;5.670;2023-04-25T07:27:20;5.38;;;1.60;;
27558;SDS011;15002;52.028;5.670;2023-04-25T07:29:46;10.73;;;2.13;;
27558;SDS011;15002;52.028;5.670;2023-04-25T07:32:12;9.65;;;1.63;;
27558;SDS011;15002;52.028;5.670;2023-04-25T07:34:38;5.57;;;1.83;;
27558;SDS011;15002;52.028;5.670;2023-04-25T07:37:05;8.52;;;1.67;;
27558;SDS011;15002;52.028;5.670;2023-04-25T07:39:30;8.68;;;1.88;;
27558;SDS011;15002;52.028;5.670;2023-04-25T07:41:56;10.52;;;2.00;;
27558;SDS011;15002;52.028;5.670;2023-04-25T07:44:23;5.13;;;1.40;;
27558;SDS011;15002;52.028;5.670;2023-04-25T07:46:50;9.73;;;1.88;;
27558;SDS011;15002;52.028;5.670;2023-04-25T07:49:15;7.20;;;1.77;;
27558;SDS011;15002;52.028;5.670;2023-04-25T07:51:41;6.25;;;1.40;;
27558;SDS011;15002;52.028;5.670;2023-04-25T07:54:09;6.85;;;1.50;;
27558;SDS011;15002;52.028;5.670;2023-04-25T07:56:35;7.00;;;1.48;;
27558;SDS011;15002;52.028;5.670;2023-04-25T07:59:00;7.22;;;2.03;;
27558;SDS011;15002;52.028;5.670;2023-04-25T08:01:26;7.03;;;1.65;;
27558;SDS011;15002;52.028;5.670;2023-04-25T08:03:52;5.38;;;1.80;;
27558;SDS011;15002;52.028;5.670;2023-04-25T08:06:18;5.85;;;1.38;;
27558;SDS011;15002;52.028;5.670;2023-04-25T08:08:43;7.65;;;1.85;;
27558;SDS011;15002;52.028;5.670;2023-04-25T08:11:10;5.00;;;1.42;;
27558;SDS011;15002;52.028;5.670;2023-04-25T08:13:35;8.13;;;1.83;;
27558;SDS011;15002;52.028;5.670;2023-04-25T08:16:01;3.85;;;1.42;;
27558;SDS011;15002;52.028;5.670;2023-04-25T08:18:27;6.72;;;1.42;;
27558;SDS011;15002;52.028;5.670;2023-04-25T08:20:53;5.72;;;1.17;;
27558;SDS011;15002;52.028;5.670;2023-04-25T08:23:18;5.78;;;1.42;;
27558;SDS011;15002;52.028;5.670;2023-04-25T08:25:44;13.75;;;2.13;;
27558;SDS011;15002;52.028;5.670;2023-04-25T08:28:09;10.60;;;1.45;;
27558;SDS011;15002;52.028;5.670;2023-04-25T08:30:36;10.32;;;1.83;;
27558;SDS011;15002;52.028;5.670;2023-04-25T08:33:01;7.32;;;1.45;;
27558;SDS011;15002;52.028;5.670;2023-04-25T08:35:27;8.45;;;1.25;;
27558;SDS011;15002;52.028;5.670;2023-04-25T08:37:53;7.30;;;1.40;;
27558;SDS011;15002;52.028;5.670;2023-04-25T08:40:19;9.52;;;1.40;;
27558;SDS011;15002;52.028;5.670;2023-04-25T08:42:51;10.07;;;1.75;;
27558;SDS011;15002;52.028;5.670;2023-04-25T08:45:18;5.78;;;1.05;;
27558;SDS011;15002;52.028;5.670;2023-04-25T08:47:44;10.40;;;1.08;;
27558;SDS011;15002;52.028;5.670;2023-04-25T08:50:13;6.63;;;1.10;;
27558;SDS011;15002;52.028;5.670;2023-04-25T08:52:45;4.85;;;1.42;;
27558;SDS011;15002;52.028;5.670;2023-04-25T08:55:13;6.32;;;1.67;;
27558;SDS011;15002;52.028;5.670;2023-04-25T08:57:40;4.70;;;1.35;;
27558;SDS011;15002;52.028;5.670;2023-04-25T09:00:08;4.85;;;1.48;;
27558;SDS011;15002;52.028;5.670;2023-04-25T09:02:35;9.30;;;1.77;;
27558;SDS011;15002;52.028;5.670;2023-04-25T09:05:02;8.20;;;1.60;;
27558;SDS011;15002;52.028;5.670;2023-04-25T09:07:29;7.15;;;1.77;;
27558;SDS011;15002;52.028;5.670;2023-04-25T09:09:55;6.90;;;1.02;;
27558;SDS011;15002;52.028;5.670;2023-04-25T09:12:20;4.47;;;1.27;;
27558;SDS011;15002;52.028;5.670;2023-04-25T09:15:06;3.88;;;1.80;;
27558;SDS011;15002;52.028;5.670;2023-04-25T09:17:33;6.32;;;1.40;;
27558;SDS011;15002;52.028;5.670;2023-04-25T09:20:18;4.75;;;1.50;;
27558;SDS011;15002;52.028;5.670;2023-04-25T09:22:45;5.75;;;1.25;;
27558;SDS011;15002;52.028;5.670;2023-04-25T09:25:11;4.95;;;1.17;;
27558;SDS011;15002;52.028;5.670;2023-04-25T09:27:51;7.18;;;1.30;;
27558;SDS011;15002;52.028;5.670;2023-04-25T09:32:56;4.22;;;1.00;;
27558;SDS011;15002;52.028;5.670;2023-04-25T09:35:23;5.05;;;1.20;;
27558;SDS011;15002;52.028;5.670;2023-04-25T09:37:52;3.38;;;1.08;;
27558;SDS011;15002;52.028;5.670;2023-04-25T09:40:19;5.03;;;1.10;;
27558;SDS011;15002;52.028;5.670;2023-04-25T09:42:44;3.47;;;1.20;;
27558;SDS011;15002;52.028;5.670;2023-04-25T09:45:12;5.03;;;1.42;;
27558;SDS011;15002;52.028;5.670;2023-04-25T09:47:40;5.28;;;1.08;;
27558;SDS011;15002;52.028;5.670;2023-04-25T09:50:15;4.82;;;1.33;;
27558;SDS011;15002;52.028;5.670;2023-04-25T09:52:43;3.65;;;0.85;;
27558;SDS011;15002;52.028;5.670;2023-04-25T09:55:09;2.50;;;0.80;;
27558;SDS011;15002;52.028;5.670;2023-04-25T09:57:35;2.72;;;0.90;;
27558;SDS011;15002;52.028;5.670;2023-04-25T10:00:04;3.03;;;0.77;;
27558;SDS011;15002;52.028;5.670;2023-04-25T10:02:34;6.57;;;1.13;;
27558;SDS011;15002;52.028;5.670;2023-04-25T10:05:02;3.50;;;1.00;;
27558;SDS011;15002;52.028;5.670;2023-04-25T10:07:32;4.30;;;1.17;;
27558;SDS011;15002;52.028;5.670;2023-04-25T10:10:03;4.82;;;1.00;;
27558;SDS011;15002;52.028;5.670;2023-04-25T10:12:30;2.75;;;0.63;;
27558;SDS011;15002;52.028;5.670;2023-04-25T10:14:59;6.30;;;1.00;;
27558;SDS011;15002;52.028;5.670;2023-04-25T10:17:28;4.63;;;1.08;;
27558;SDS011;15002;52.028;5.670;2023-04-25T10:19:54;5.93;;;1.15;;
27558;SDS011;15002;52.028;5.670;2023-04-25T10:22:23;8.32;;;1.75;;
27558;SDS011;15002;52.028;5.670;2023-04-25T10:24:55;9.77;;;1.40;;
27558;SDS011;15002;52.028;5.670;2023-04-25T10:27:22;10.00;;;1.63;;
27558;SDS011;15002;52.028;5.670;2023-04-25T10:32:46;5.75;;;1.00;;
27558;SDS011;15002;52.028;5.670;2023-04-25T10:35:17;6.03;;;1.00;;
27558;SDS011;15002;52.028;5.670;2023-04-25T10:40:28;3.78;;;1.00;;
27558;SDS011;15002;52.028;5.670;2023-04-25T10:42:54;4.25;;;0.85;;
27558;SDS011;15002;52.028;5.670;2023-04-25T10:45:20;6.32;;;0.90;;
27558;SDS011;15002;52.028;5.670;2023-04-25T10:47:46;3.60;;;1.00;;
27558;SDS011;15002;52.028;5.670;2023-04-25T10:50:14;4.50;;;1.10;;
27558;SDS011;15002;52.028;5.670;2023-04-25T10:52:43;3.88;;;0.88;;
27558;SDS011;15002;52.028;5.670;2023-04-25T10:55:12;4.13;;;0.85;;
27558;SDS011;15002;52.028;5.670;2023-04-25T10:57:41;5.22;;;0.82;;
27558;SDS011;15002;52.028;5.670;2023-04-25T11:02:43;4.75;;;1.02;;
27558;SDS011;15002;52.028;5.670;2023-04-25T11:05:20;4.55;;;1.02;;
27558;SDS011;15002;52.028;5.670;2023-04-25T11:07:58;3.33;;;0.90;;
27558;SDS011;15002;52.028;5.670;2023-04-25T11:10:31;5.90;;;1.10;;
27558;SDS011;15002;52.028;5.670;2023-04-25T11:13:00;3.63;;;0.77;;
27558;SDS011;15002;52.028;5.670;2023-04-25T11:15:26;4.72;;;0.77;;
27558;SDS011;15002;52.028;5.670;2023-04-25T11:17:52;2.15;;;0.85;;
27558;SDS011;15002;52.028;5.670;2023-04-25T11:20:18;4.68;;;0.80;;
27558;SDS011;15002;52.028;5.670;2023-04-25T11:22:44;4.97;;;1.05;;
27558;SDS011;15002;52.028;5.670;2023-04-25T11:25:11;4.20;;;0.90;;
27558;SDS011;15002;52.028;5.670;2023-04-25T11:27:49;3.00;;;0.95;;
27558;SDS011;15002;52.028;5.670;2023-04-25T11:30:16;1.95;;;0.82;;
27558;SDS011;15002;52.028;5.670;2023-04-25T11:32:42;3.90;;;0.85;;
27558;SDS011;15002;52.028;5.670;2023-04-25T11:35:08;1.38;;;0.70;;
27558;SDS011;15002;52.028;5.670;2023-04-25T11:37:34;3.13;;;0.82;;
27558;SDS011;15002;52.028;5.670;2023-04-25T11:40:01;5.50;;;1.05;;
27558;SDS011;15002;52.028;5.670;2023-04-25T11:42:28;4.40;;;1.17;;
27558;SDS011;15002;52.028;5.670;2023-04-25T11:44:55;3.47;;;0.95;;
27558;SDS011;15002;52.028;5.670;2023-04-25T11:47:26;6.25;;;1.13;;
27558;SDS011;15002;52.028;5.670;2023-04-25T11:49:54;7.47;;;1.20;;
27558;SDS011;15002;52.028;5.670;2023-04-25T11:52:20;8.20;;;1.30;;
27558;SDS011;15002;52.028;5.670;2023-04-25T11:54:46;3.95;;;1.10;;
27558;SDS011;15002;52.028;5.670;2023-04-25T11:57:11;3.88;;;0.90;;
27558;SDS011;15002;52.028;5.670;2023-04-25T11:59:37;5.10;;;1.30;;
27558;SDS011;15002;52.028;5.670;2023-04-25T12:02:03;4.10;;;0.65;;
27558;SDS011;15002;52.028;5.670;2023-04-25T12:04:29;4.20;;;0.90;;
27558;SDS011;15002;52.028;5.670;2023-04-25T12:06:57;5.22;;;1.00;;
27558;SDS011;15002;52.028;5.670;2023-04-25T12:09:29;4.90;;;1.02;;
27558;SDS011;15002;52.028;5.670;2023-04-25T12:11:57;4.45;;;1.00;;
27558;SDS011;15002;52.028;5.670;2023-04-25T12:14:25;4.47;;;1.17;;
27558;SDS011;15002;52.028;5.670;2023-04-25T12:16:58;6.93;;;1.20;;
27558;SDS011;15002;52.028;5.670;2023-04-25T12:19:25;5.45;;;1.60;;
27558;SDS011;15002;52.028;5.670;2023-04-25T12:21:56;5.22;;;1.23;;
27558;SDS011;15002;52.028;5.670;2023-04-25T12:24:23;8.38;;;1.63;;
27558;SDS011;15002;52.028;5.670;2023-04-25T12:26:57;3.05;;;0.95;;
27558;SDS011;15002;52.028;5.670;2023-04-25T12:29:26;6.00;;;1.13;;
27558;SDS011;15002;52.028;5.670;2023-04-25T12:31:53;4.95;;;1.45;;
27558;SDS011;15002;52.028;5.670;2023-04-25T12:34:20;6.20;;;0.98;;
27558;SDS011;15002;52.028;5.670;2023-04-25T12:36:46;3.85;;;1.00;;
27558;SDS011;15002;52.028;5.670;2023-04-25T12:41:42;6.00;;;1.23;;
27558;SDS011;15002;52.028;5.670;2023-04-25T12:44:08;7.43;;;0.98;;
27558;SDS011;15002;52.028;5.670;2023-04-25T12:46:35;8.93;;;1.10;;
27558;SDS011;15002;52.028;5.670;2023-04-25T12:49:01;7.20;;;1.23;;
27558;SDS011;15002;52.028;5.670;2023-04-25T12:51:28;3.10;;;1.15;;
27558;SDS011;15002;52.028;5.670;2023-04-25T12:53:54;4.65;;;1.17;;
27558;SDS011;15002;52.028;5.670;2023-04-25T12:56:20;4.63;;;1.10;;
27558;SDS011;15002;52.028;5.670;2023-04-25T12:58:45;6.78;;;1.13;;
27558;SDS011;15002;52.028;5.670;2023-04-25T13:01:13;3.88;;;1.33;;
27558;SDS011;15002;52.028;5.670;2023-04-25T13:03:39;7.82;;;1.15;;
27558;SDS011;15002;52.028;5.670;2023-04-25T13:06:06;6.15;;;1.50;;
27558;SDS011;15002;52.028;5.670;2023-04-25T13:08:32;6.80;;;1.42;;
27558;SDS011;15002;52.028;5.670;2023-04-25T13:10:58;6.03;;;1.20;;
27558;SDS011;15002;52.028;5.670;2023-04-25T13:13:23;5.57;;;1.15;;
27558;SDS011;15002;52.028;5.670;2023-04-25T13:15:49;3.20;;;0.90;;
27558;SDS011;15002;52.028;5.670;2023-04-25T13:18:15;4.55;;;0.93;;
27558;SDS011;15002;52.028;5.670;2023-04-25T13:20:40;4.90;;;0.90;;
27558;SDS011;15002;52.028;5.670;2023-04-25T13:23:06;3.78;;;1.20;;
27558;SDS011;15002;52.028;5.670;2023-04-25T13:25:32;6.85;;;1.33;;
27558;SDS011;15002;52.028;5.670;2023-04-25T13:27:57;3.25;;;0.90;;
27558;SDS011;15002;52.028;5.670;2023-04-25T13:30:23;3.95;;;0.80;;
27558;SDS011;15002;52.028;5.670;2023-04-25T13:32:49;2.50;;;0.95;;
27558;SDS011;15002;52.028;5.670;2023-04-25T13:35:16;5.95;;;1.00;;
27558;SDS011;15002;52.028;5.670;2023-04-25T13:37:42;3.20;;;0.90;;
27558;SDS011;15002;52.028;5.670;2023-04-25T13:40:09;3.78;;;0.90;;
27558;SDS011;15002;52.028;5.670;2023-04-25T13:42:38;1.60;;;0.45;;
27558;SDS011;15002;52.028;5.670;2023-04-25T13:45:05;3.75;;;0.90;;
27558;SDS011;15002;52.028;5.670;2023-04-25T13:47:31;2.13;;;0.77;;
27558;SDS011;15002;52.028;5.670;2023-04-25T13:49:57;3.90;;;0.73;;
27558;SDS011;15002;52.028;5.670;2023-04-25T13:52:23;4.45;;;1.58;;
27558;SDS011;15002;52.028;5.670;2023-04-25T13:54:52;4.47;;;1.00;;
27558;SDS011;15002;52.028;5.670;2023-04-25T13:57:18;6.20;;;1.17;;
27558;SDS011;15002;52.028;5.670;2023-04-25T13:59:44;6.07;;;0.95;;
27558;SDS011;15002;52.028;5.670;2023-04-25T14:02:11;6.78;;;1.17;;
27558;SDS011;15002;52.028;5.670;2023-04-25T14:04:37;3.42;;;1.13;;
27558;SDS011;15002;52.028;5.670;2023-04-25T14:07:03;7.40;;;1.25;;
27558;SDS011;15002;52.028;5.670;2023-04-25T14:09:29;3.35;;;0.80;;
27558;SDS011;15002;52.028;5.670;2023-04-25T14:11:55;3.13;;;0.85;;
27558;SDS011;15002;52.028;5.670;2023-04-25T14:14:22;3.45;;;0.90;;
27558;SDS011;15002;52.028;5.670;2023-04-25T14:16:48;2.50;;;0.95;;
27558;SDS011;15002;52.028;5.670;2023-04-25T14:19:15;4.68;;;1.10;;
27558;SDS011;15002;52.028;5.670;2023-04-25T14:21:41;4.10;;;0.88;;
27558;SDS011;15002;52.028;5.670;2023-04-25T14:24:08;8.07;;;1.20;;
27558;SDS011;15002;52.028;5.670;2023-04-25T14:26:34;4.65;;;1.00;;
27558;SDS011;15002;52.028;5.670;2023-04-25T14:29:03;3.05;;;0.77;;
27558;SDS011;15002;52.028;5.670;2023-04-25T14:31:30;4.50;;;0.85;;
27558;SDS011;15002;52.028;5.670;2023-04-25T14:33:56;4.50;;;1.13;;
27558;SDS011;15002;52.028;5.670;2023-04-25T14:36:22;3.97;;;0.95;;
27558;SDS011;15002;52.028;5.670;2023-04-25T14:38:47;7.45;;;2.13;;
27558;SDS011;15002;52.028;5.670;2023-04-25T14:41:13;6.22;;;1.10;;
27558;SDS011;15002;52.028;5.670;2023-04-25T14:43:39;2.55;;;0.80;;
27558;SDS011;15002;52.028;5.670;2023-04-25T14:46:08;5.82;;;1.33;;
27558;SDS011;15002;52.028;5.670;2023-04-25T14:48:34;3.47;;;1.05;;
27558;SDS011;15002;52.028;5.670;2023-04-25T14:51:00;3.35;;;0.85;;
27558;SDS011;15002;52.028;5.670;2023-04-25T14:53:26;6.78;;;1.52;;